Sweetwater, Idaho
Current Conditions -  °F | °C
As of 4:56 AM on Thursday 18 Dec 2014 (Local Time) from KLWS Reporting Station
Overcast Overcast  
Wind Chill: 34°   Ceiling: 9000
Heat Index: 38°   Visibility: 10mi
Dew Point: 37°   Wind: 5mph
Humidity: 97%   Direction: 110°ESE
Pressure: 30.01"   Gusts: NA
Location:  46.425°N, 116.755°W
Report Text: KLWS 181256Z AUTO 11004KT 10SM FEW065 OVC090 03/03 A3001 RMK AO2 RAE1158 SLP173 P0000 T00330028
Loading
Personal Weather Stations






























Interactive Weather Map New forecast layout! Learn more

10-Day Weather Forecast

Advertisements
Track Severe Weather on mobile